Time;durP1;ratioP1;P1;durP2;ratioP2;P2;SDS_P1;SDS_P2;PMS_P1;PMS_P2;Temp;Humidity;BMP_temperature;BMP_pressure;BME280_temperature;BME280_humidity;BME280_pressure;Samples;Min_cycle;Max_cycle;Signal;HPM_P1;HPM_P2
2022/12/03 00:01:29;;;;;;;1.02;1.02;;;;;;;4.29;81.40;100033.47;4318205;33;34638;-76
2022/12/03 00:03:57;;;;;;;1.60;1.50;;;;;;;3.78;84.56;100033.81;4319346;33;34548;-77
2022/12/03 00:06:25;;;;;;;1.00;1.00;;;;;;;4.29;82.73;100040.31;4319309;33;34061;-75
2022/12/03 00:09:01;;;;;;;0.90;0.90;;;;;;;4.30;82.48;100035.19;4319290;33;35256;-77
2022/12/03 00:11:29;;;;;;;2.15;1.85;;;;;;;3.99;83.79;100043.84;4319361;33;34660;-76
2022/12/03 00:13:57;;;;;;;2.62;2.42;;;;;;;3.95;83.41;100048.03;4319158;33;34471;-75
2022/12/03 00:16:25;;;;;;;2.08;1.98;;;;;;;4.02;83.63;100043.03;4319492;33;33963;-76
2022/12/03 00:18:53;;;;;;;2.40;2.20;;;;;;;4.30;81.85;100042.91;4319155;33;35043;-75
2022/12/03 00:21:21;;;;;;;0.77;0.77;;;;;;;3.63;85.89;100043.69;4319259;33;34582;-76
2022/12/03 00:23:51;;;;;;;1.20;1.10;;;;;;;3.82;84.90;100045.94;4319213;33;33670;-77
2022/12/03 00:26:19;;;;;;;1.50;1.40;;;;;;;4.17;83.27;100048.62;4319202;33;34804;-76
2022/12/03 00:28:47;;;;;;;2.08;1.95;;;;;;;4.35;81.92;100048.22;4319027;33;35357;-76
2022/12/03 00:31:16;;;;;;;2.25;2.12;;;;;;;3.74;84.58;100050.00;4319259;33;34425;-76
2022/12/03 00:33:44;;;;;;;4.85;4.40;;;;;;;3.78;84.96;100054.44;4319146;33;33797;-76
2022/12/03 00:36:12;;;;;;;2.90;2.72;;;;;;;4.26;83.31;100059.16;4318987;33;34867;-77
2022/12/03 00:38:40;;;;;;;2.67;2.47;;;;;;;3.99;83.88;100055.00;4319054;33;35155;-76
2022/12/03 00:41:08;;;;;;;2.15;2.05;;;;;;;4.08;83.19;100043.22;4319075;33;34617;-77
2022/12/03 00:43:36;;;;;;;1.80;1.70;;;;;;;4.37;82.07;100052.56;4319106;33;33788;-76
2022/12/03 00:46:04;;;;;;;0.80;0.80;;;;;;;3.95;84.03;100053.19;4319298;33;34839;-75
2022/12/03 00:48:32;;;;;;;4.40;4.00;;;;;;;4.12;83.50;100060.50;4319004;33;35904;-77
2022/12/03 00:51:00;;;;;;;3.37;3.08;;;;;;;4.16;83.68;100058.06;4318483;33;34566;-75
2022/12/03 00:53:28;;;;;;;1.73;1.62;;;;;;;3.80;84.89;100052.75;4318906;33;33577;-77
2022/12/03 00:55:56;;;;;;;2.67;2.50;;;;;;;4.10;83.45;100057.00;4318886;33;34616;-75
2022/12/03 00:58:24;;;;;;;1.23;1.20;;;;;;;4.13;83.95;100055.38;4318881;33;35062;-75
2022/12/03 01:00:52;;;;;;;3.15;2.20;;;;;;;4.29;82.62;100064.41;4318844;33;34411;-76
2022/12/03 01:03:20;;;;;;;0.90;0.90;;;;;;;4.27;82.85;100052.28;4318751;33;33424;-76
2022/12/03 01:05:48;;;;;;;12.95;3.37;;;;;;;4.26;82.89;100055.72;4318732;33;33870;-76
2022/12/03 01:08:17;;;;;;;1.65;1.55;;;;;;;4.18;83.91;100052.91;4318590;33;35919;-74
2022/12/03 01:10:44;;;;;;;1.50;1.30;;;;;;;3.92;84.64;100047.09;4318704;33;34483;-75
2022/12/03 01:13:12;;;;;;;1.95;1.40;;;;;;;4.30;82.68;100053.22;4318784;33;33393;-76
2022/12/03 01:15:41;;;;;;;1.98;1.77;;;;;;;4.07;84.39;100046.63;4318342;33;34738;-76
2022/12/03 01:18:09;;;;;;;0.60;0.60;;;;;;;4.16;83.87;100049.44;4318665;33;35843;-76
2022/12/03 01:20:37;;;;;;;1.95;1.67;;;;;;;4.36;83.33;100042.25;4318476;33;35132;-76
2022/12/03 01:23:05;;;;;;;8.80;2.50;;;;;;;4.29;83.12;100048.94;4318581;33;33755;-75
2022/12/03 01:25:33;;;;;;;4.12;3.03;;;;;;;4.07;84.03;100056.94;4318543;33;33910;-76
2022/12/03 01:28:01;;;;;;;1.80;1.73;;;;;;;4.16;83.37;100052.91;4318443;33;35092;-75
2022/12/03 01:32:15;;;;;;;2.78;2.58;;;;;;;4.11;84.01;100054.47;4318445;33;34484;-77
2022/12/03 01:33:17;;;;;;;1.55;1.45;;;;;;;4.02;84.67;100058.50;4318494;33;33634;-77
2022/12/03 01:35:45;;;;;;;1.98;1.87;;;;;;;3.96;84.97;100054.91;4318350;33;34635;-76
2022/12/03 01:38:13;;;;;;;0.80;0.80;;;;;;;4.07;84.55;100062.94;4318588;33;35865;-76
2022/12/03 01:40:41;;;;;;;5.10;2.60;;;;;;;4.28;84.07;100061.78;4318380;33;35137;-77
2022/12/03 01:43:09;;;;;;;2.15;1.95;;;;;;;4.02;85.04;100053.34;4317171;33;33613;-76
2022/12/03 01:45:37;;;;;;;0.73;0.73;;;;;;;4.34;83.42;100061.94;4318341;33;33814;-76
2022/12/03 01:48:05;;;;;;;2.28;2.17;;;;;;;4.52;82.09;100065.00;4318112;33;34895;-75
2022/12/03 01:50:34;;;;;;;4.12;3.65;;;;;;;4.27;83.56;100062.59;4318098;33;34700;-76
2022/12/03 01:53:03;;;;;;;1.33;1.23;;;;;;;4.01;84.84;100059.31;4318253;33;33736;-75
2022/12/03 01:55:31;;;;;;;0.90;0.90;;;;;;;4.21;84.34;100059.88;4318127;33;33943;-76
2022/12/03 01:58:00;;;;;;;1.15;1.15;;;;;;;4.08;84.71;100058.69;4317913;33;35156;-75
2022/12/03 02:00:29;;;;;;;1.67;1.58;;;;;;;4.32;84.16;100049.03;4304966;33;34545;-76
2022/12/03 02:03:03;;;;;;;2.97;2.78;;;;;;;4.31;83.60;100057.56;4318920;33;33649;-76
2022/12/03 02:05:33;;;;;;;1.87;1.77;;;;;;;3.90;85.64;100049.63;4320044;33;34069;-76
2022/12/03 02:08:00;;;;;;;2.03;1.77;;;;;;;4.08;85.62;100048.38;4307011;33;34822;-75
2022/12/03 02:10:32;;;;;;;3.53;2.80;;;;;;;4.27;84.76;100049.72;4320064;33;34403;-76
2022/12/03 02:13:04;;;;;;;3.50;3.30;;;;;;;4.09;85.63;100050.09;4307084;33;34467;-75
2022/12/03 02:15:32;;;;;;;0.70;0.70;;;;;;;4.30;83.97;100053.22;4306740;33;33748;-76
2022/12/03 02:18:01;;;;;;;2.15;2.05;;;;;;;4.70;83.25;100049.09;4306916;33;35547;-75
2022/12/03 02:20:32;;;;;;;2.25;2.15;;;;;;;4.22;84.53;100049.59;4319987;33;34677;-76
2022/12/03 02:23:12;;;;;;;1.15;1.12;;;;;;;4.27;84.90;100045.44;4306904;33;33703;-75
2022/12/03 02:25:41;;;;;;;1.48;1.37;;;;;;;3.55;88.21;100046.91;4320057;33;34835;-75
2022/12/03 02:28:09;;;;;;;3.47;1.37;;;;;;;4.22;85.06;100048.72;4319793;33;35747;-76
2022/12/03 02:30:37;;;;;;;2.58;2.42;;;;;;;3.93;86.91;100043.66;4306841;33;35366;-76
2022/12/03 02:33:05;;;;;;;2.10;1.83;;;;;;;4.16;85.23;100039.12;4319946;33;34464;-75
2022/12/03 02:35:34;;;;;;;4.68;4.30;;;;;;;4.13;85.47;100041.59;4318800;33;33936;-76
2022/12/03 02:38:08;;;;;;;2.05;1.95;;;;;;;3.74;86.92;100047.41;4306593;33;35161;-76
2022/12/03 02:40:37;;;;;;;4.37;4.15;;;;;;;4.21;85.56;100047.00;4319959;33;34457;-75
2022/12/03 02:43:05;;;;;;;2.25;2.08;;;;;;;3.93;85.01;100043.66;4306727;33;33652;-75
2022/12/03 02:45:35;;;;;;;1.35;1.25;;;;;;;4.14;84.56;100043.38;4306772;33;34750;-77
2022/12/03 02:48:14;;;;;;;2.08;1.87;;;;;;;3.73;86.99;100050.84;4319883;33;35123;-76
2022/12/03 02:50:45;;;;;;;3.15;2.33;;;;;;;4.16;85.65;100047.75;4318735;33;34568;-77
2022/12/03 02:53:19;;;;;;;1.95;1.85;;;;;;;3.80;85.92;100047.59;4306708;33;33774;-75
2022/12/03 02:55:48;;;;;;;2.50;1.73;;;;;;;4.06;85.33;100044.84;4306832;33;33836;-76
2022/12/03 02:58:16;;;;;;;6.32;5.78;;;;;;;4.23;84.05;100048.75;4319587;33;35131;-76
2022/12/03 03:00:45;;;;;;;4.75;4.32;;;;;;;4.01;85.74;100047.31;4319686;33;34363;-75
2022/12/03 03:03:13;;;;;;;2.00;1.90;;;;;;;3.91;86.03;100046.19;4318687;33;33516;-76
2022/12/03 03:05:41;;;;;;;2.95;2.35;;;;;;;4.22;84.82;100046.12;4319905;33;34556;-76
2022/12/03 03:08:10;;;;;;;1.95;1.85;;;;;;;3.87;86.40;100048.66;4318557;33;35161;-76
2022/12/03 03:10:39;;;;;;;2.20;2.10;;;;;;;3.93;86.16;100046.25;4306576;33;35342;-76
2022/12/03 03:13:10;;;;;;;1.62;1.52;;;;;;;4.18;84.99;100055.50;4319415;33;34536;-76
2022/12/03 03:15:39;;;;;;;3.80;2.45;;;;;;;4.21;83.15;100060.75;4306476;33;33211;-76
2022/12/03 03:18:09;;;;;;;1.08;0.88;;;;;;;4.41;82.38;100062.97;4294616;33;34959;-74
2022/12/03 03:20:37;;;;;;;2.03;1.92;;;;;;;3.79;85.31;100058.72;4306552;33;34557;-75
2022/12/03 03:23:12;;;;;;;1.48;1.37;;;;;;;3.91;84.84;100058.22;4306501;33;33647;-75
2022/12/03 03:25:43;;;;;;;1.60;1.50;;;;;;;4.01;84.79;100049.00;4319566;33;34744;-76
2022/12/03 03:28:13;;;;;;;4.87;4.40;;;;;;;3.88;84.59;100050.37;4306539;33;35034;-75
2022/12/03 03:30:43;;;;;;;1.27;1.25;;;;;;;4.00;85.45;100055.88;4304444;33;34007;-76
2022/12/03 03:33:12;;;;;;;1.20;1.20;;;;;;;3.85;84.92;100053.75;4319474;33;33670;-76
2022/12/03 03:35:41;;;;;;;2.47;2.30;;;;;;;3.68;85.23;100053.28;4306515;33;33935;-76
2022/12/03 03:38:09;;;;;;;2.37;2.17;;;;;;;4.22;83.60;100049.59;4306301;33;35942;-76
2022/12/03 03:40:37;;;;;;;0.98;0.98;;;;;;;3.98;84.94;100045.53;4306373;33;34470;-76
2022/12/03 03:43:06;;;;;;;1.98;1.85;;;;;;;4.24;83.91;100053.09;4306340;33;33658;-75
2022/12/03 03:45:34;;;;;;;4.75;4.32;;;;;;;3.51;86.59;100042.50;4319708;33;34963;-77
2022/12/03 03:48:02;;;;;;;1.90;1.77;;;;;;;4.03;85.00;100052.53;4318235;33;35159;-76
2022/12/03 03:50:30;;;;;;;5.03;4.53;;;;;;;3.96;84.24;100048.91;4319400;33;34525;-77
2022/12/03 03:53:00;;;;;;;1.37;1.35;;;;;;;4.04;84.71;100046.53;4306368;33;34465;-77
2022/12/03 03:55:29;;;;;;;2.03;1.92;;;;;;;3.90;84.15;100049.63;4306172;33;34027;-74
2022/12/03 03:57:57;;;;;;;1.70;1.50;;;;;;;4.07;84.40;100049.19;4319286;33;34924;-76
2022/12/03 04:00:25;;;;;;;2.22;2.12;;;;;;;4.26;83.22;100047.97;4319471;33;35368;-76
2022/12/03 04:02:53;;;;;;;2.17;2.08;;;;;;;4.11;83.86;100051.00;4319431;33;33658;-76
2022/12/03 04:05:23;;;;;;;1.50;1.40;;;;;;;4.22;83.37;100059.91;4319289;33;34611;-76
2022/12/03 04:07:51;;;;;;;1.77;1.67;;;;;;;4.57;82.05;100059.97;4306511;33;34874;-76
2022/12/03 04:13:06;;;;;;;1.20;1.15;;;;;;;4.29;83.27;100053.19;4319361;33;34437;-75
2022/12/03 04:15:34;;;;;;;1.12;1.12;;;;;;;4.42;82.79;100049.25;4319055;33;34888;-76
2022/12/03 04:20:49;;;;;;;1.20;1.17;;;;;;;4.33;82.97;100049.88;4319233;33;34456;-75
2022/12/03 04:23:17;;;;;;;4.07;3.67;;;;;;;4.31;83.31;100054.13;4318070;33;34415;-75
2022/12/03 04:28:49;;;;;;;2.00;1.90;;;;;;;4.40;82.97;100050.91;4319305;33;35053;-76
2022/12/03 04:36:51;;;;;;;1.23;1.23;;;;;;;4.10;84.40;100050.16;4319184;33;35094;-75
2022/12/03 04:39:19;;;;;;;2.67;2.55;;;;;;;4.11;83.62;100051.91;4319055;33;35132;-76
2022/12/03 04:41:47;;;;;;;3.08;2.80;;;;;;;4.36;82.44;100061.16;4319074;33;35223;-76
2022/12/03 04:47:10;;;;;;;2.17;2.08;;;;;;;3.75;85.26;100052.62;4319070;33;34030;-75
2022/12/03 04:49:44;;;;;;;2.75;2.08;;;;;;;3.90;84.93;100054.78;4318959;33;35124;-75
2022/12/03 04:52:13;;;;;;;7.05;6.20;;;;;;;3.98;84.05;100053.25;4318896;33;34605;-75
2022/12/03 04:54:41;;;;;;;1.00;1.00;;;;;;;4.02;84.34;100055.91;4319019;33;33749;-76
2022/12/03 04:57:10;;;;;;;0.98;0.98;;;;;;;4.15;83.81;100047.69;4317796;33;34815;-74
2022/12/03 04:59:38;;;;;;;3.12;2.60;;;;;;;4.11;83.69;100045.84;4305728;33;35823;-76
2022/12/03 05:02:06;;;;;;;1.08;1.08;;;;;;;4.29;83.55;100056.66;4318981;33;35290;-76
2022/12/03 05:04:35;;;;;;;1.92;1.83;;;;;;;4.13;84.56;100055.38;4318699;33;34446;-76
2022/12/03 05:07:03;;;;;;;2.42;2.22;;;;;;;4.25;83.72;100064.25;4311664;33;233035;-76
2022/12/03 05:09:32;;;;;;;6.95;4.37;;;;;;;4.35;83.75;100064.53;4318648;33;35027;-75
2022/12/03 05:12:00;;;;;;;3.78;2.35;;;;;;;4.31;82.78;100061.88;4318713;33;34630;-75
2022/12/03 05:14:28;;;;;;;3.83;2.50;;;;;;;3.98;84.01;100058.41;4318493;33;34603;-75
2022/12/03 05:16:56;;;;;;;6.25;3.80;;;;;;;3.98;84.37;100070.44;4318619;33;34091;-77
2022/12/03 05:20:40;;;;;;;1.70;1.60;;;;;;;3.75;85.41;100065.50;4318523;33;35970;-75
2022/12/03 05:22:12;;;;;;;1.62;1.52;;;;;;;3.53;86.57;100073.44;4318484;33;34553;-76
2022/12/03 05:24:41;;;;;;;4.68;3.40;;;;;;;3.61;86.54;100072.81;4318527;33;34397;-75
2022/12/03 05:27:09;;;;;;;2.85;2.62;;;;;;;3.69;86.12;100069.59;4318544;33;34919;-77
2022/12/03 05:29:37;;;;;;;2.67;2.45;;;;;;;3.28;86.87;100077.84;4318468;33;35182;-77
2022/12/03 05:32:05;;;;;;;2.75;2.60;;;;;;;3.46;87.18;100069.81;4318247;33;34531;-77
2022/12/03 05:34:33;;;;;;;5.30;4.22;;;;;;;3.37;88.21;100072.09;4318462;33;34253;-77
2022/12/03 05:37:01;;;;;;;1.33;1.30;;;;;;;3.37;88.07;100083.28;4318402;33;34041;-75
2022/12/03 05:39:29;;;;;;;1.35;1.25;;;;;;;3.38;88.01;100077.28;4320141;33;35037;-77
2022/12/03 05:44:44;;;;;;;;;;;;;;;3.71;86.77;100070.53;4320573;33;33689;-76
2022/12/03 05:47:12;;;;;;;2.10;2.00;;;;;;;3.52;86.51;100082.00;4320511;33;34210;-76
2022/12/03 05:49:40;;;;;;;3.20;3.00;;;;;;;3.65;86.95;100091.81;4320198;33;35975;-76
2022/12/03 05:52:08;;;;;;;2.60;2.28;;;;;;;3.87;86.15;100089.88;4320085;33;34532;-76
2022/12/03 05:54:36;;;;;;;3.42;2.67;;;;;;;3.93;86.08;100090.91;4320175;33;33743;-77
2022/12/03 05:57:04;;;;;;;1.08;1.08;;;;;;;3.95;85.51;100094.41;4320210;33;33815;-76
2022/12/03 05:59:33;;;;;;;1.10;1.00;;;;;;;3.88;85.91;100099.34;4320107;33;35620;-77
2022/12/03 06:02:01;;;;;;;0.93;0.93;;;;;;;3.90;84.76;100101.16;4320255;33;34456;-75
2022/12/03 06:04:29;;;;;;;2.85;2.65;;;;;;;3.94;85.41;100092.66;4320050;33;33688;-77
2022/12/03 06:06:57;;;;;;;2.37;2.25;;;;;;;3.95;84.29;100098.69;4320134;33;34202;-77
2022/12/03 06:09:25;;;;;;;1.52;1.42;;;;;;;3.89;85.36;100090.78;4320018;33;34910;-76
2022/12/03 06:11:53;;;;;;;4.65;3.08;;;;;;;3.96;85.39;100092.72;4320134;33;34524;-76
2022/12/03 06:14:21;;;;;;;3.25;3.05;;;;;;;3.98;84.63;100094.47;4318787;33;33643;-76
2022/12/03 06:16:49;;;;;;;5.55;3.08;;;;;;;3.84;86.09;100090.66;4319971;33;34666;-77
2022/12/03 06:19:17;;;;;;;2.47;2.28;;;;;;;4.27;84.37;100085.81;4319931;33;35855;-77
2022/12/03 06:21:45;;;;;;;2.15;2.03;;;;;;;4.06;84.47;100083.50;4320051;33;34367;-77
2022/12/03 06:24:13;;;;;;;1.20;1.20;;;;;;;4.20;84.45;100081.31;4319974;33;33337;-76
2022/12/03 06:26:41;;;;;;;2.25;2.15;;;;;;;4.34;83.51;100082.56;4320019;33;33989;-76
2022/12/03 06:29:09;;;;;;;12.85;7.07;;;;;;;3.90;85.03;100085.69;4318775;33;35020;-75
2022/12/03 06:31:37;;;;;;;1.25;1.25;;;;;;;3.81;86.57;100093.12;4319915;33;34428;-77
2022/12/03 06:34:06;;;;;;;0.95;0.90;;;;;;;4.26;83.79;100090.09;4319890;33;33633;-76
2022/12/03 06:36:33;;;;;;;5.60;4.03;;;;;;;3.84;85.76;100079.47;4319932;33;33953;-76
2022/12/03 06:39:02;;;;;;;0.90;0.88;;;;;;;4.30;83.84;100089.34;4319612;33;35008;-77
2022/12/03 06:41:30;;;;;;;1.37;1.27;;;;;;;4.13;84.81;100086.31;4319874;33;34478;-76
2022/12/03 06:43:59;;;;;;;2.28;2.05;;;;;;;3.89;85.17;100091.66;4319888;33;33670;-76
2022/12/03 06:46:27;;;;;;;1.75;1.65;;;;;;;3.94;85.70;100094.37;4319772;33;34049;-76
2022/12/03 06:48:55;;;;;;;1.67;1.58;;;;;;;3.80;85.48;100091.41;4319396;33;35025;-76
2022/12/03 06:51:23;;;;;;;4.47;3.10;;;;;;;3.92;86.01;100090.88;4319794;33;35215;-76
2022/12/03 06:53:51;;;;;;;0.85;0.85;;;;;;;3.97;85.96;100097.91;4319757;33;34526;-76
2022/12/03 06:56:19;;;;;;;4.95;3.30;;;;;;;3.98;85.31;100099.62;4318590;33;33933;-76
2022/12/03 06:58:49;;;;;;;1.62;1.52;;;;;;;4.05;85.36;100104.97;4306640;33;34655;-75
2022/12/03 07:01:17;;;;;;;3.83;2.58;;;;;;;4.06;85.56;100105.03;4319712;33;35246;-76
2022/12/03 07:03:45;;;;;;;1.15;1.05;;;;;;;4.17;84.88;100106.19;4319783;33;34407;-76
2022/12/03 07:06:14;;;;;;;1.83;1.55;;;;;;;4.07;85.47;100100.72;4319767;33;34735;-77
2022/12/03 07:08:42;;;;;;;1.23;1.17;;;;;;;3.93;86.41;100103.78;4319680;33;35031;-76
2022/12/03 07:11:29;;;;;;;2.35;1.95;;;;;;;4.05;85.80;100104.97;4319654;33;35424;-76
2022/12/03 07:14:01;;;;;;;2.62;2.53;;;;;;;3.86;86.43;100106.16;4319618;33;33729;-76
2022/12/03 07:16:34;;;;;;;5.15;2.30;;;;;;;4.05;85.55;100102.41;4319588;33;33757;-75
2022/12/03 07:19:03;;;;;;;8.70;7.28;;;;;;;3.86;86.37;100109.59;4319507;33;35017;-75
2022/12/03 07:21:31;;;;;;;1.02;1.02;;;;;;;4.23;85.37;100102.88;4319596;33;34482;-75
2022/12/03 07:23:59;;;;;;;10.43;2.35;;;;;;;4.17;84.88;100100.16;4319566;33;33630;-75
2022/12/03 07:26:27;;;;;;;0.90;0.90;;;;;;;4.53;83.55;100101.97;4319723;33;34848;-76
2022/12/03 07:28:56;;;;;;;2.40;2.25;;;;;;;4.44;84.43;100105.16;4319560;33;35008;-76
2022/12/03 07:31:24;;;;;;;8.40;4.97;;;;;;;4.54;84.36;100104.59;4319601;33;35335;-77
2022/12/03 07:33:52;;;;;;;1.37;0.88;;;;;;;4.25;85.42;100106.38;4319472;33;33958;-75
2022/12/03 07:36:20;;;;;;;2.35;2.20;;;;;;;5.00;81.94;100102.28;4319332;33;34847;-76
2022/12/03 07:38:48;;;;;;;0.50;0.50;;;;;;;4.52;84.40;100102.81;4319410;33;34936;-75
2022/12/03 07:41:16;;;;;;;8.68;4.00;;;;;;;4.65;83.63;100104.00;4318327;33;35257;-76
2022/12/03 07:43:44;;;;;;;0.90;0.90;;;;;;;4.63;82.94;100106.53;4319549;33;33649;-77
2022/12/03 07:46:14;;;;;;;3.25;2.85;;;;;;;4.56;83.74;100102.03;4319717;33;33793;-77
2022/12/03 07:48:42;;;;;;;2.25;2.00;;;;;;;4.65;83.87;100101.41;4319443;33;35980;-76
2022/12/03 07:51:10;;;;;;;3.35;2.17;;;;;;;4.82;83.38;100099.22;4319408;33;34578;-75
2022/12/03 07:53:42;;;;;;;3.12;2.50;;;;;;;5.00;82.63;100091.97;4319486;33;33834;-76
2022/12/03 07:56:10;;;;;;;1.25;1.25;;;;;;;4.69;82.77;100088.59;4319384;33;34697;-76
2022/12/03 07:58:38;;;;;;;5.25;4.75;;;;;;;4.63;83.36;100091.06;4319336;33;36061;-76
2022/12/03 08:01:07;;;;;;;4.97;3.65;;;;;;;4.75;82.88;100090.50;4317522;33;35296;-76
2022/12/03 08:03:35;;;;;;;2.58;2.03;;;;;;;5.04;82.15;100098.94;4319250;33;33665;-76
2022/12/03 08:06:03;;;;;;;1.40;1.35;;;;;;;4.78;83.52;100100.00;4319379;33;34725;-76
2022/12/03 08:08:31;;;;;;;0.90;0.90;;;;;;;4.87;83.83;100101.13;4319157;33;35032;-76
2022/12/03 08:11:01;;;;;;;4.00;3.62;;;;;;;5.03;83.37;100107.53;4319327;33;34593;-77
2022/12/03 08:13:29;;;;;;;4.05;2.17;;;;;;;4.98;82.58;100111.69;4319333;33;34416;-76
2022/12/03 08:16:00;;;;;;;1.35;1.33;;;;;;;5.29;81.95;100107.25;4306002;33;34702;-77
2022/12/03 08:18:29;;;;;;;4.03;3.65;;;;;;;5.21;81.27;100120.00;4319363;33;34951;-77
2022/12/03 08:20:57;;;;;;;2.60;2.03;;;;;;;5.03;83.02;100120.44;4319216;33;35241;-77
2022/12/03 08:23:25;;;;;;;2.00;1.85;;;;;;;5.21;81.24;100121.72;4319277;33;33799;-76
2022/12/03 08:25:53;;;;;;;3.90;2.65;;;;;;;4.99;82.82;100115.16;4319221;33;34617;-76
2022/12/03 08:28:25;;;;;;;2.00;1.90;;;;;;;5.24;81.28;100101.09;4319132;33;34928;-75
2022/12/03 08:31:11;;;;;;;3.22;3.03;;;;;;;5.06;82.73;100102.41;4319355;33;35324;-77
2022/12/03 08:33:40;;;;;;;2.08;1.48;;;;;;;4.59;84.20;100104.72;4319288;33;33802;-76
2022/12/03 08:36:15;;;;;;;1.10;1.10;;;;;;;4.62;84.86;100094.44;4319036;33;34642;-76
2022/12/03 08:38:50;;;;;;;7.45;3.97;;;;;;;4.99;83.82;100095.34;4306072;33;34938;-76
2022/12/03 08:42:40;;;;;;;2.97;2.70;;;;;;;5.08;83.39;100105.94;4319195;33;34145;-76
2022/12/03 08:44:26;;;;;;;1.37;1.35;;;;;;;5.01;83.75;100110.88;4319219;33;33665;-77
2022/12/03 08:47:00;;;;;;;;;;;;;;;4.90;83.62;100115.78;4319432;33;34730;-76
2022/12/03 08:49:28;;;;;;;2.70;2.10;;;;;;;4.35;86.79;100126.44;4319085;33;36251;-76
2022/12/03 08:51:59;;;;;;;2.92;2.67;;;;;;;5.13;84.04;100129.25;4318959;33;34544;-77
2022/12/03 08:54:27;;;;;;;5.15;4.65;;;;;;;5.25;83.35;100137.28;4306115;33;33031;-77
2022/12/03 08:56:55;;;;;;;7.00;6.43;;;;;;;5.44;81.81;100141.19;4318856;33;34723;-76
2022/12/03 08:59:34;;;;;;;6.53;5.28;;;;;;;5.32;82.22;100143.47;4318800;33;35107;-76
2022/12/03 09:02:11;;;;;;;2.15;2.05;;;;;;;5.37;82.24;100139.28;4319011;33;34492;-76
2022/12/03 09:04:46;;;;;;;2.97;2.78;;;;;;;5.43;81.95;100123.91;4305938;33;33758;-77
2022/12/03 09:07:14;;;;;;;2.25;2.10;;;;;;;5.32;83.33;100121.09;4319097;33;33882;-76
2022/12/03 09:09:42;;;;;;;2.15;2.00;;;;;;;5.16;83.28;100121.59;4318575;33;35885;-74
2022/12/03 09:12:10;;;;;;;4.60;3.60;;;;;;;5.47;82.53;100125.75;4318419;33;34592;-75
2022/12/03 09:14:38;;;;;;;2.70;2.42;;;;;;;5.66;81.54;100115.81;4318474;33;33770;-77
2022/12/03 09:17:06;;;;;;;2.87;1.65;;;;;;;5.29;82.34;100120.16;4318694;33;33879;-76
2022/12/03 09:19:35;;;;;;;5.47;2.47;;;;;;;5.14;82.51;100118.09;4318593;33;35572;-74
2022/12/03 09:22:09;;;;;;;4.32;3.92;;;;;;;5.46;82.23;100110.22;4318618;33;35323;-77
2022/12/03 09:24:37;;;;;;;18.00;5.68;;;;;;;5.12;83.15;100114.63;4318622;33;33682;-76
2022/12/03 09:27:05;;;;;;;2.65;2.45;;;;;;;5.52;82.20;100112.91;4318519;33;33902;-77
2022/12/03 09:29:33;;;;;;;1.00;1.00;;;;;;;5.45;82.58;100109.34;4318737;33;35028;-77
2022/12/03 09:32:02;;;;;;;8.02;3.47;;;;;;;5.33;82.75;100101.34;4318514;33;34335;-77
2022/12/03 09:34:30;;;;;;;2.45;2.15;;;;;;;5.43;83.32;100108.44;4305341;33;33820;-77
2022/12/03 09:36:59;;;;;;;3.78;3.53;;;;;;;5.54;83.23;100116.44;4318432;33;33923;-76
2022/12/03 09:39:27;;;;;;;4.55;4.07;;;;;;;5.51;83.38;100112.06;4318246;33;35099;-76
2022/12/03 09:41:55;;;;;;;2.37;2.28;;;;;;;5.58;81.62;100102.75;4318282;33;35193;-76
2022/12/03 09:44:23;;;;;;;6.07;3.60;;;;;;;5.86;81.14;100096.44;4318688;33;33575;-76
2022/12/03 09:46:51;;;;;;;2.28;2.12;;;;;;;6.03;80.89;100111.44;4317268;33;33950;-76
2022/12/03 09:49:19;;;;;;;5.45;4.75;;;;;;;6.30;79.42;100099.88;4318443;33;34918;-77
2022/12/03 09:51:48;;;;;;;3.72;3.42;;;;;;;6.11;79.91;100094.37;4318472;33;34672;-77
2022/12/03 09:54:23;;;;;;;2.47;2.28;;;;;;;6.30;79.90;100090.44;4318454;33;33656;-77
2022/12/03 09:56:53;;;;;;;1.80;1.70;;;;;;;6.18;79.04;100096.25;4305252;33;34144;-75
2022/12/03 09:59:23;;;;;;;2.67;2.47;;;;;;;6.50;77.56;100098.56;4317994;33;35098;-74
2022/12/03 10:01:52;;;;;;;1.62;1.40;;;;;;;6.34;78.51;100093.94;4304978;33;34894;-74
2022/12/03 10:04:21;;;;;;;1.27;1.27;;;;;;;6.81;76.71;100080.94;4304992;33;33825;-75
2022/12/03 10:06:50;;;;;;;4.62;3.58;;;;;;;6.59;77.70;100074.56;4318113;33;34014;-77
2022/12/03 10:09:23;;;;;;;3.50;3.20;;;;;;;6.76;76.27;100080.00;4317889;33;35009;-75
2022/12/03 10:11:52;;;;;;;7.28;3.33;;;;;;;6.73;75.84;100083.41;4304825;33;35152;-75
2022/12/03 10:14:20;;;;;;;3.28;3.03;;;;;;;6.75;75.92;100080.84;4316457;33;34589;-76
2022/12/03 10:16:48;;;;;;;3.92;2.67;;;;;;;6.85;76.33;100090.53;4317909;33;34070;-77
2022/12/03 10:19:22;;;;;;;4.15;3.58;;;;;;;6.80;75.78;100077.50;4317800;33;35935;-76
2022/12/03 10:21:51;;;;;;;4.30;3.78;;;;;;;6.75;75.63;100061.00;4317760;33;34516;-74
2022/12/03 10:24:25;;;;;;;5.12;3.30;;;;;;;6.81;75.69;100068.91;4319018;33;34672;-77
2022/12/03 10:26:56;;;;;;;4.35;3.50;;;;;;;6.81;75.82;100062.81;4319830;33;33960;-77
2022/12/03 10:29:31;;;;;;;2.45;2.25;;;;;;;6.80;75.58;100058.50;4319991;33;36110;-76
2022/12/03 10:32:07;;;;;;;3.00;2.83;;;;;;;6.89;74.84;100048.28;4319883;33;34879;-76
2022/12/03 10:34:37;;;;;;;2.47;2.35;;;;;;;6.72;74.84;100052.34;4320089;33;33818;-77
2022/12/03 10:37:20;;;;;;;3.85;3.03;;;;;;;6.98;73.87;100050.16;4319983;33;33091;-76
2022/12/03 10:39:57;;;;;;;2.78;1.83;;;;;;;6.76;74.22;100051.53;4306708;33;35153;-76
2022/12/03 10:42:30;;;;;;;2.60;2.40;;;;;;;6.84;75.27;100040.44;4319871;33;34534;-76
2022/12/03 10:45:25;;;;;;;3.90;3.60;;;;;;;7.51;73.56;100042.25;4319790;33;33772;-75
2022/12/03 10:48:05;;;;;;;3.80;3.22;;;;;;;8.27;70.32;100033.63;4318428;33;34164;-76
2022/12/03 10:50:34;;;;;;;5.18;4.47;;;;;;;8.31;69.32;100037.09;4306806;33;35068;-75
2022/12/03 10:53:03;;;;;;;5.05;2.67;;;;;;;8.19;70.41;100026.59;4306689;33;34527;-76
2022/12/03 10:55:37;;;;;;;1.55;1.45;;;;;;;8.06;70.08;100023.87;4319795;33;34427;-74
2022/12/03 10:58:23;;;;;;;8.35;5.05;;;;;;;7.71;71.34;100023.50;4306611;33;33883;-76
2022/12/03 11:00:55;;;;;;;1.05;1.00;;;;;;;7.99;71.87;100019.50;4319711;33;36010;-77
2022/12/03 11:03:28;;;;;;;4.05;3.65;;;;;;;8.04;70.93;100027.34;4306600;33;34606;-76
2022/12/03 11:05:59;;;;;;;2.25;1.92;;;;;;;8.15;70.66;100026.59;4319830;33;33644;-77
2022/12/03 11:08:32;;;;;;;1.48;1.42;;;;;;;8.72;68.25;100021.06;4306710;33;33890;-77
2022/12/03 11:11:07;;;;;;;1.77;1.67;;;;;;;8.37;69.29;100025.94;4307006;33;35053;-77
2022/12/03 11:13:35;;;;;;;6.95;5.87;;;;;;;9.05;67.43;100012.66;4306793;33;34593;-77
2022/12/03 11:16:05;;;;;;;1.73;1.62;;;;;;;9.25;67.13;100017.97;4319407;33;34575;-75
2022/12/03 11:18:36;;;;;;;4.70;3.87;;;;;;;10.26;64.78;100008.75;4306551;33;33898;-77
2022/12/03 11:21:12;;;;;;;2.58;2.28;;;;;;;11.06;60.67;100008.75;4319400;33;35139;-75
2022/12/03 11:23:43;;;;;;;4.03;3.72;;;;;;;11.67;58.54;100006.84;4319589;33;35273;-77
2022/12/03 11:26:27;;;;;;;6.15;4.28;;;;;;;12.41;56.73;99986.41;4319654;33;34362;-75
2022/12/03 11:28:57;;;;;;;2.92;2.62;;;;;;;13.39;53.06;99989.81;4319836;33;33928;-78
2022/12/03 11:31:45;;;;;;;3.00;2.80;;;;;;;12.96;51.09;99990.25;4319547;33;35158;-78
2022/12/03 11:34:19;;;;;;;6.85;3.20;;;;;;;12.62;52.21;100002.78;4319492;33;34457;-75
2022/12/03 11:37:09;;;;;;;2.55;2.35;;;;;;;12.18;53.51;99993.50;4319675;33;33762;-78
2022/12/03 11:39:44;;;;;;;4.62;3.65;;;;;;;13.02;51.99;99984.97;4319617;33;34644;-78
2022/12/03 11:42:26;;;;;;;2.12;1.92;;;;;;;12.96;50.93;99985.03;4319282;33;35031;-78
2022/12/03 11:45:03;;;;;;;7.55;5.22;;;;;;;12.79;50.74;99997.41;4319558;33;34502;-77
2022/12/03 11:47:36;;;;;;;5.18;3.60;;;;;;;12.47;52.44;99990.69;4319441;33;33781;-79
2022/12/03 11:50:16;;;;;;;4.12;3.03;;;;;;;12.02;53.25;99987.53;4306360;33;33828;-78
2022/12/03 11:52:47;;;;;;;2.62;2.40;;;;;;;11.42;55.03;99986.06;4319504;33;35142;-78
2022/12/03 11:55:29;;;;;;;2.22;1.58;;;;;;;12.62;51.58;99974.91;4319497;33;33670;-78
2022/12/03 11:58:03;;;;;;;1.75;1.65;;;;;;;11.61;52.98;99980.75;4306575;33;33847;-78
2022/12/03 12:00:31;;;;;;;1.62;1.52;;;;;;;12.06;53.08;99973.59;4295107;33;33394;-76
2022/12/03 12:03:00;;;;;;;2.50;2.15;;;;;;;11.28;55.86;99967.00;4319308;33;36015;-80
2022/12/03 12:05:32;;;;;;;3.30;3.00;;;;;;;11.28;55.97;99967.00;4319274;33;34773;-79
2022/12/03 12:08:01;;;;;;;7.07;4.07;;;;;;;11.73;54.32;99957.22;4319800;33;33771;-77